Time;durP1;ratioP1;P1;durP2;ratioP2;P2;SDS_P1;SDS_P2;PMS_P1;PMS_P2;Temp;Humidity;BMP_temperature;BMP_pressure;BME280_temperature;BME280_humidity;BME280_pressure;Samples;Min_cycle;Max_cycle;Signal;HPM_P1;HPM_P2
2023/07/12 00:04:14;;;;;;;10.63;5.53;;;;;;;18.43;100.00;100696.25;10412468;28;20033;-71
2023/07/12 00:09:14;;;;;;;11.80;5.95;;;;;;;18.34;100.00;100691.41;10409315;28;20037;-71
2023/07/12 00:14:15;;;;;;;11.13;5.45;;;;;;;18.31;100.00;100708.78;10393118;28;20030;-72
2023/07/12 00:19:16;;;;;;;10.27;5.00;;;;;;;18.30;100.00;100689.56;10376836;28;20037;-71
2023/07/12 00:24:16;;;;;;;11.93;6.15;;;;;;;18.32;100.00;100696.47;10358645;28;20132;-72
2023/07/12 00:29:17;;;;;;;10.90;5.50;;;;;;;18.30;100.00;100695.13;10377877;28;20041;-71
2023/07/12 00:34:17;;;;;;;9.60;5.70;;;;;;;18.20;100.00;100690.59;10409213;28;20044;-71
2023/07/12 00:39:18;;;;;;;10.85;5.10;;;;;;;18.17;100.00;100688.44;10389697;28;20025;-72
2023/07/12 00:44:28;;;;;;;10.35;4.80;;;;;;;18.14;100.00;100670.38;10390067;28;20056;-71
2023/07/12 00:49:28;;;;;;;9.85;5.13;;;;;;;18.21;100.00;100639.31;10353926;28;20093;-71
2023/07/12 00:54:56;;;;;;;8.10;5.63;;;;;;;18.18;100.00;100634.34;10376150;28;20125;-71
2023/07/12 00:59:59;;;;;;;10.50;5.13;;;;;;;18.17;100.00;100634.66;10391427;28;20049;-71
2023/07/12 01:05:00;;;;;;;7.63;4.47;;;;;;;18.18;100.00;100631.56;10378909;28;20432;-71
2023/07/12 01:10:01;;;;;;;7.68;4.95;;;;;;;17.89;100.00;100595.69;10336525;28;20097;-72
2023/07/12 01:15:02;;;;;;;7.40;4.82;;;;;;;18.11;100.00;100637.56;10340504;28;20052;-70
2023/07/12 01:20:03;;;;;;;8.00;5.18;;;;;;;18.05;100.00;100624.06;10347017;28;20049;-72
2023/07/12 01:25:04;;;;;;;8.50;5.25;;;;;;;18.02;100.00;100633.03;10401963;28;20426;-72
2023/07/12 01:30:05;;;;;;;9.60;4.78;;;;;;;17.97;100.00;100631.19;10383908;28;20037;-72
2023/07/12 01:35:06;;;;;;;9.48;6.20;;;;;;;17.95;100.00;100644.59;10382667;28;20033;-71
2023/07/12 01:40:08;;;;;;;12.18;6.80;;;;;;;17.92;100.00;100659.13;10384254;28;20113;-72
2023/07/12 01:45:08;;;;;;;10.40;6.07;;;;;;;17.86;100.00;100655.63;10396506;28;20037;-72
2023/07/12 01:50:09;;;;;;;12.27;6.47;;;;;;;17.82;100.00;100640.66;10382850;28;20039;-71
2023/07/12 01:55:10;;;;;;;8.70;5.63;;;;;;;17.83;100.00;100625.59;10368113;28;20489;-71
2023/07/12 02:00:11;;;;;;;14.02;5.90;;;;;;;17.72;100.00;100601.88;10381392;28;20147;-71
2023/07/12 02:05:11;;;;;;;6.40;4.68;;;;;;;17.79;100.00;100624.53;10382091;28;20064;-70
2023/07/12 02:10:14;;;;;;;7.10;4.60;;;;;;;17.73;100.00;100631.34;10381096;28;20038;-71
2023/07/12 02:15:15;;;;;;;7.95;4.25;;;;;;;17.62;100.00;100622.38;10398091;28;20055;-71
2023/07/12 02:20:15;;;;;;;7.70;4.22;;;;;;;17.63;100.00;100600.91;10365023;28;20048;-71
2023/07/12 02:25:17;;;;;;;7.07;4.03;;;;;;;17.51;100.00;100605.03;10397501;28;20037;-71
2023/07/12 02:30:27;;;;;;;12.68;4.80;;;;;;;17.42;100.00;100625.53;10380610;28;20497;-72
2023/07/12 02:35:29;;;;;;;8.73;4.72;;;;;;;17.40;100.00;100628.63;10396398;28;20041;-70
2023/07/12 02:40:30;;;;;;;8.75;4.43;;;;;;;17.35;100.00;100653.75;10396650;28;20112;-71
2023/07/12 02:45:30;;;;;;;9.93;5.65;;;;;;;17.33;100.00;100656.03;10381274;28;20128;-71
2023/07/12 02:50:31;;;;;;;7.93;4.63;;;;;;;17.26;100.00;100680.63;10413738;28;20037;-71
2023/07/12 02:55:31;;;;;;;9.60;4.72;;;;;;;17.25;100.00;100684.53;10413131;28;20493;-71
2023/07/12 03:00:32;;;;;;;8.10;4.85;;;;;;;17.21;100.00;100681.53;10396384;28;20037;-71
2023/07/12 03:05:36;;;;;;;6.60;3.85;;;;;;;17.10;100.00;100632.78;10378747;28;20037;-71
2023/07/12 03:10:37;;;;;;;7.40;4.35;;;;;;;17.12;100.00;100634.13;10411009;28;20049;-71
2023/07/12 03:15:38;;;;;;;8.07;4.05;;;;;;;17.08;100.00;100621.13;10396059;28;20037;-71
2023/07/12 03:20:38;;;;;;;9.70;3.70;;;;;;;17.01;100.00;100613.19;10380505;28;20056;-69
2023/07/12 03:25:39;;;;;;;7.78;3.83;;;;;;;16.97;100.00;100581.56;10400275;28;20049;-71
2023/07/12 03:30:39;;;;;;;6.25;3.83;;;;;;;16.97;100.00;100589.91;10419286;28;20114;-71
2023/07/12 03:35:40;;;;;;;8.68;3.63;;;;;;;16.92;100.00;100581.63;10419371;28;20025;-71
2023/07/12 03:40:40;;;;;;;8.63;4.43;;;;;;;16.90;100.00;100539.41;10403470;28;20382;-71
2023/07/12 03:45:42;;;;;;;10.23;4.10;;;;;;;16.86;100.00;100580.88;10403282;28;20098;-71
2023/07/12 03:50:43;;;;;;;8.45;4.15;;;;;;;16.87;100.00;100635.38;10363725;28;20041;-71
2023/07/12 03:55:45;;;;;;;12.75;4.15;;;;;;;16.81;100.00;100605.19;10409308;28;20092;-71
2023/07/12 04:00:48;;;;;;;15.00;4.25;;;;;;;16.84;100.00;100635.16;10384867;28;20041;-71
2023/07/12 04:05:50;;;;;;;9.98;4.00;;;;;;;16.69;100.00;100644.53;10406967;28;20037;-70
2023/07/12 04:10:52;;;;;;;6.15;3.05;;;;;;;16.68;100.00;100646.47;10375633;28;20045;-71
2023/07/12 04:15:53;;;;;;;10.45;4.03;;;;;;;16.00;100.00;100547.72;10395803;28;20044;-71
2023/07/12 04:20:54;;;;;;;14.40;5.05;;;;;;;16.67;100.00;100671.78;10418622;28;20072;-71
2023/07/12 04:26:02;;;;;;;10.52;4.68;;;;;;;16.52;100.00;100643.09;10400777;28;20059;-70
2023/07/12 04:31:03;;;;;;;7.82;4.30;;;;;;;16.77;100.00;100670.81;10417487;28;20057;-71
2023/07/12 04:36:05;;;;;;;11.32;4.43;;;;;;;16.74;100.00;100684.19;10400005;28;20093;-70
2023/07/12 04:41:06;;;;;;;11.50;4.53;;;;;;;16.83;100.00;100698.28;10377662;28;20076;-70
2023/07/12 04:46:06;;;;;;;12.73;5.40;;;;;;;16.89;100.00;100696.25;10409251;28;20059;-71
2023/07/12 04:51:07;;;;;;;10.75;3.78;;;;;;;16.93;100.00;100700.91;10409287;28;20033;-71
2023/07/12 04:56:07;;;;;;;9.10;4.93;;;;;;;16.99;100.00;100696.09;10357715;28;20077;-71
2023/07/12 05:01:09;;;;;;;11.55;4.65;;;;;;;16.92;100.00;100723.44;10410833;28;20029;-71
2023/07/12 05:06:10;;;;;;;9.40;4.80;;;;;;;16.86;100.00;100696.84;10383201;28;20075;-71
2023/07/12 05:11:10;;;;;;;14.68;6.65;;;;;;;16.83;100.00;100692.72;10417081;28;20647;-71
2023/07/12 05:16:11;;;;;;;11.93;5.85;;;;;;;16.73;100.00;100698.38;10418111;28;20033;-70
2023/07/12 05:21:12;;;;;;;10.93;5.75;;;;;;;16.79;100.00;100719.44;10399246;28;20514;-71
2023/07/12 05:26:13;;;;;;;12.43;5.40;;;;;;;16.81;100.00;100714.44;10415090;28;20044;-70
2023/07/12 05:31:14;;;;;;;13.35;5.00;;;;;;;16.78;100.00;100712.19;10422846;28;20037;-71
2023/07/12 05:36:15;;;;;;;12.30;5.03;;;;;;;16.68;100.00;100717.91;10373914;28;20052;-71
2023/07/12 05:41:15;;;;;;;13.13;5.38;;;;;;;16.57;100.00;100722.78;10341886;28;20033;-71
2023/07/12 05:46:16;;;;;;;15.90;4.95;;;;;;;16.60;100.00;100726.91;10418489;28;20377;-71
2023/07/12 05:51:16;;;;;;;12.27;4.90;;;;;;;16.62;100.00;100730.22;10367163;28;20034;-71
2023/07/12 05:56:17;;;;;;;15.48;5.40;;;;;;;16.66;100.00;100704.31;10358407;28;20037;-71
2023/07/12 06:01:17;;;;;;;18.95;6.18;;;;;;;16.99;100.00;100718.34;10381103;28;20041;-70
2023/07/12 06:06:18;;;;;;;16.02;5.78;;;;;;;17.33;100.00;100706.13;10399199;28;20034;-71
2023/07/12 06:11:18;;;;;;;11.52;5.57;;;;;;;17.39;100.00;100721.59;10396914;28;20037;-70
2023/07/12 06:16:19;;;;;;;12.73;5.47;;;;;;;17.32;100.00;100738.69;10423199;28;20029;-70
2023/07/12 06:21:19;;;;;;;10.63;5.50;;;;;;;17.34;100.00;100728.06;10391292;28;20505;-70
2023/07/12 06:26:20;;;;;;;14.45;6.07;;;;;;;17.68;100.00;100748.38;10413552;28;20065;-71
2023/07/12 06:31:20;;;;;;;9.68;6.38;;;;;;;17.77;100.00;100754.06;10415356;28;20045;-70
2023/07/12 06:36:21;;;;;;;12.52;6.68;;;;;;;17.79;100.00;100762.94;10414514;28;20049;-70
2023/07/12 06:41:21;;;;;;;15.13;6.68;;;;;;;17.85;100.00;100778.47;10381317;28;20041;-71
2023/07/12 06:46:22;;;;;;;16.38;5.43;;;;;;;17.79;100.00;100758.19;10382861;28;20030;-71
2023/07/12 06:51:23;;;;;;;12.57;6.32;;;;;;;18.07;100.00;100761.91;10364383;28;20044;-69
2023/07/12 06:56:23;;;;;;;13.40;5.93;;;;;;;17.99;100.00;100756.22;10381287;28;24995;-71
2023/07/12 07:01:23;;;;;;;11.05;5.65;;;;;;;18.16;100.00;100767.56;10365511;28;20576;-71
2023/07/12 07:06:24;;;;;;;16.00;6.25;;;;;;;18.02;100.00;100761.97;10379198;28;20053;-70
2023/07/12 07:11:25;;;;;;;11.90;5.20;;;;;;;18.12;100.00;100763.75;10395384;28;20037;-71
2023/07/12 07:16:25;;;;;;;14.57;4.68;;;;;;;18.04;100.00;100762.50;10416028;28;20040;-70
2023/07/12 07:21:26;;;;;;;14.35;4.95;;;;;;;18.51;100.00;100749.31;10419068;28;20652;-71
2023/07/12 07:26:27;;;;;;;11.43;4.60;;;;;;;18.81;100.00;100765.72;10402619;28;20105;-73
2023/07/12 07:31:28;;;;;;;13.90;5.13;;;;;;;19.15;100.00;100770.81;10424412;28;20124;-71
2023/07/12 07:36:29;;;;;;;6.07;4.03;;;;;;;19.42;100.00;100769.06;10438277;28;20033;-72
2023/07/12 07:41:30;;;;;;;17.75;5.60;;;;;;;19.36;100.00;100783.13;10419005;28;20036;-71
2023/07/12 07:46:30;;;;;;;11.35;5.15;;;;;;;18.51;100.00;100720.63;10435719;28;20077;-71
2023/07/12 07:51:34;;;;;;;9.23;4.28;;;;;;;18.90;100.00;100797.34;10415595;28;20049;-71
2023/07/12 07:56:34;;;;;;;10.27;3.83;;;;;;;19.12;100.00;100813.28;10385276;28;20033;-71
2023/07/12 08:01:35;;;;;;;12.07;3.58;;;;;;;18.85;100.00;100812.22;10367528;28;20041;-71
2023/07/12 08:06:37;;;;;;;10.82;3.35;;;;;;;18.72;100.00;100808.25;10424155;28;20063;-70
2023/07/12 08:11:38;;;;;;;8.52;3.85;;;;;;;18.72;100.00;100818.59;10401022;28;20064;-71
2023/07/12 08:16:39;;;;;;;8.18;3.88;;;;;;;18.86;100.00;100813.03;10410257;28;20087;-71
2023/07/12 08:21:39;;;;;;;12.25;3.72;;;;;;;19.52;100.00;100797.56;10376693;28;20045;-71
2023/07/12 08:26:40;;;;;;;10.70;4.22;;;;;;;19.98;100.00;100800.38;10392646;28;20105;-72
2023/07/12 08:31:40;;;;;;;9.23;2.60;;;;;;;20.52;100.00;100807.50;10345907;28;20040;-71
2023/07/12 08:36:41;;;;;;;7.13;3.47;;;;;;;20.26;100.00;100826.19;10394138;28;20033;-70
2023/07/12 08:41:41;;;;;;;4.93;3.00;;;;;;;19.78;100.00;100816.50;10425559;28;20057;-71
2023/07/12 08:46:46;;;;;;;8.88;4.43;;;;;;;19.37;100.00;100828.66;10400616;28;20033;-71
2023/07/12 08:51:47;;;;;;;5.78;2.92;;;;;;;19.66;100.00;100819.03;10400290;28;20041;-71
2023/07/12 08:57:09;;;;;;;10.43;3.53;;;;;;;20.12;100.00;100831.84;10445357;28;20033;-72
2023/07/12 09:02:31;;;;;;;8.25;3.45;;;;;;;19.98;100.00;100842.28;10433469;28;20710;-71
2023/07/12 09:07:31;;;;;;;7.88;2.88;;;;;;;19.74;100.00;100854.59;10418065;28;20041;-71
2023/07/12 09:12:34;;;;;;;8.75;2.88;;;;;;;19.76;100.00;100860.69;10400816;28;20041;-71
2023/07/12 09:17:42;;;;;;;9.55;2.72;;;;;;;19.85;100.00;100853.19;10401165;28;20044;-71
2023/07/12 09:22:43;;;;;;;8.75;3.35;;;;;;;19.53;100.00;100860.66;10376126;28;20061;-70
2023/07/12 09:27:45;;;;;;;7.63;3.03;;;;;;;19.52;100.00;100841.41;10376711;28;20097;-71
2023/07/12 09:32:48;;;;;;;19.70;4.70;;;;;;;19.61;100.00;100867.44;10394323;28;20030;-70
2023/07/12 09:37:56;;;;;;;6.53;3.50;;;;;;;19.55;100.00;100851.94;10401171;28;20026;-71
2023/07/12 09:42:57;;;;;;;11.48;3.72;;;;;;;19.69;100.00;100877.03;10383306;28;20037;-70
2023/07/12 09:48:26;;;;;;;6.85;3.08;;;;;;;19.47;100.00;100892.63;10415600;28;20337;-71
2023/07/12 09:53:34;;;;;;;7.15;1.65;;;;;;;18.66;100.00;100904.31;10398530;28;20052;-70
2023/07/12 09:58:38;;;;;;;5.82;2.17;;;;;;;18.30;100.00;100913.34;10420273;28;20829;-69
2023/07/12 10:03:41;;;;;;;11.60;5.32;;;;;;;18.14;100.00;100903.59;10386316;28;20033;-70
2023/07/12 10:08:51;;;;;;;14.55;5.00;;;;;;;18.30;100.00;100910.53;10421609;28;20037;-70
2023/07/12 10:13:55;;;;;;;12.05;5.38;;;;;;;18.46;100.00;100897.16;10421834;28;20569;-71
2023/07/12 10:18:56;;;;;;;11.02;5.63;;;;;;;19.13;100.00;100904.25;10380190;28;20053;-70
2023/07/12 10:24:01;;;;;;;14.90;5.38;;;;;;;19.87;100.00;100897.59;10350167;28;20042;-70
2023/07/12 10:29:05;;;;;;;8.13;3.47;;;;;;;20.52;100.00;100896.19;10399152;28;20041;-71
2023/07/12 10:34:25;;;;;;;8.55;3.30;;;;;;;21.03;100.00;100906.00;10397536;28;20036;-71
2023/07/12 10:39:27;;;;;;;9.63;3.20;;;;;;;21.12;100.00;100898.44;10422549;28;20037;-72
2023/07/12 10:44:30;;;;;;;8.55;2.10;;;;;;;20.78;100.00;100896.34;10421989;28;20094;-72
2023/07/12 10:49:44;;;;;;;12.07;4.00;;;;;;;21.51;100.00;100893.91;10382098;28;20084;-72
2023/07/12 10:54:51;;;;;;;6.72;2.67;;;;;;;21.72;100.00;100893.28;10398483;28;20557;-72
2023/07/12 11:00:20;;;;;;;6.13;1.60;;;;;;;22.15;100.00;100892.44;10396822;28;20048;-72
2023/07/12 11:06:08;;;;;;;5.15;1.50;;;;;;;22.50;100.00;100889.56;10380191;28;20061;-72
2023/07/12 11:11:09;;;;;;;5.20;1.60;;;;;;;21.93;100.00;100905.50;10358517;28;20063;-72
2023/07/12 11:16:17;;;;;;;4.63;2.58;;;;;;;22.01;100.00;100912.22;10437835;28;20033;-72
2023/07/12 11:21:46;;;;;;;8.93;1.67;;;;;;;22.76;100.00;100898.72;10421328;28;20041;-72
2023/07/12 11:26:58;;;;;;;5.88;1.42;;;;;;;22.74;100.00;100908.66;10437565;28;20047;-71
2023/07/12 11:32:26;;;;;;;5.63;1.45;;;;;;;21.92;100.00;100915.03;10419010;28;20390;-71
2023/07/12 11:37:46;;;;;;;4.32;0.93;;;;;;;21.82;100.00;100923.78;10434507;28;20048;-71
2023/07/12 11:42:47;;;;;;;2.15;1.08;;;;;;;21.47;100.00;100923.75;10402785;28;20451;-71
2023/07/12 11:47:49;;;;;;;4.30;1.35;;;;;;;21.48;100.00;100922.59;10401342;28;20033;-71
2023/07/12 11:52:49;;;;;;;4.18;1.20;;;;;;;21.43;100.00;100924.72;10386008;28;20041;-70
2023/07/12 11:57:50;;;;;;;5.60;0.98;;;;;;;22.16;100.00;100922.13;10384832;28;20511;-70
2023/07/12 12:02:52;;;;;;;3.55;1.10;;;;;;;22.10;100.00;100915.03;10436330;28;20032;-70
2023/07/12 12:07:55;;;;;;;2.35;0.80;;;;;;;22.33;100.00;100901.66;10420721;28;20072;-71
2023/07/12 12:12:56;;;;;;;1.75;0.60;;;;;;;22.30;100.00;100863.06;10402750;28;20036;-69
2023/07/12 12:17:56;;;;;;;2.75;1.05;;;;;;;23.50;100.00;100913.38;10401630;28;20037;-70
2023/07/12 12:23:17;;;;;;;8.15;1.98;;;;;;;24.13;100.00;100915.38;10417793;28;20141;-70
2023/07/12 12:28:30;;;;;;;1.98;0.70;;;;;;;23.76;100.00;100903.91;10403656;28;20064;-69
2023/07/12 12:33:30;;;;;;;3.45;0.60;;;;;;;24.50;100.00;100901.44;10394730;28;20033;-70
2023/07/12 12:38:33;;;;;;;4.15;0.80;;;;;;;23.68;100.00;100907.63;10401498;28;20029;-70
2023/07/12 12:43:34;;;;;;;1.55;0.70;;;;;;;23.94;100.00;100919.50;10404514;28;20127;-70
2023/07/12 12:48:34;;;;;;;2.88;0.60;;;;;;;25.15;98.71;100913.69;10438155;28;20060;-70
2023/07/12 12:53:35;;;;;;;1.85;0.50;;;;;;;25.54;96.72;100916.16;10416011;28;20032;-71
2023/07/12 12:58:35;;;;;;;3.00;0.70;;;;;;;25.65;88.83;100900.38;10433595;28;20033;-70
2023/07/12 13:03:37;;;;;;;2.17;0.77;;;;;;;24.69;92.51;100912.97;10451114;28;20644;-71
2023/07/12 13:08:37;;;;;;;1.83;0.50;;;;;;;25.89;90.37;100909.94;10418180;28;20056;-71
2023/07/12 13:13:37;;;;;;;1.35;0.40;;;;;;;25.81;87.05;100908.91;10441898;28;20033;-70
2023/07/12 13:18:38;;;;;;;3.92;0.73;;;;;;;26.59;87.66;100920.84;10423792;28;20033;-70
2023/07/12 13:23:39;;;;;;;1.98;0.55;;;;;;;25.97;82.63;100926.75;10406417;28;21231;-69
2023/07/12 13:28:39;;;;;;;1.92;0.70;;;;;;;25.31;87.37;100938.38;10422482;28;20067;-70
2023/07/12 13:33:40;;;;;;;1.65;0.50;;;;;;;25.54;85.07;100922.59;10392278;28;20040;-70
2023/07/12 13:38:40;;;;;;;3.13;0.88;;;;;;;25.88;82.66;100923.22;10406350;28;20048;-71
2023/07/12 13:43:41;;;;;;;3.08;0.63;;;;;;;25.66;82.86;100927.41;10407753;28;20029;-70
2023/07/12 13:48:42;;;;;;;3.45;0.57;;;;;;;26.14;81.75;100933.28;10412414;28;20381;-71
2023/07/12 13:53:43;;;;;;;1.30;0.45;;;;;;;26.75;79.67;100921.66;10401986;28;20037;-71
2023/07/12 13:58:43;;;;;;;2.10;0.47;;;;;;;26.87;76.43;100915.13;10397968;28;20038;-71
2023/07/12 14:03:44;;;;;;;1.38;0.40;;;;;;;27.56;72.78;100911.94;10416138;28;20388;-71
2023/07/12 14:08:44;;;;;;;1.25;0.60;;;;;;;27.23;70.38;100926.50;10398763;28;20034;-70
2023/07/12 14:13:45;;;;;;;1.13;0.40;;;;;;;27.17;72.34;100928.75;10399797;28;20037;-69
2023/07/12 14:18:45;;;;;;;3.28;0.60;;;;;;;27.10;70.17;100912.47;10386456;28;20048;-69
2023/07/12 14:23:46;;;;;;;1.10;0.38;;;;;;;27.44;71.16;100943.16;10364505;28;20061;-71
2023/07/12 14:28:47;;;;;;;1.55;0.60;;;;;;;27.00;69.87;100915.84;10399358;28;20033;-69
2023/07/12 14:33:49;;;;;;;4.00;0.70;;;;;;;27.70;69.98;100929.22;10399045;28;20034;-69
2023/07/12 14:38:50;;;;;;;2.30;0.45;;;;;;;27.37;70.97;100941.00;10424069;28;20049;-70
2023/07/12 14:43:50;;;;;;;1.27;0.43;;;;;;;27.40;71.17;100950.72;10394190;28;20041;-78
2023/07/12 14:48:51;;;;;;;1.48;0.40;;;;;;;28.09;68.76;100931.25;10395173;28;20041;-80
2023/07/12 14:53:51;;;;;;;2.35;0.60;;;;;;;27.81;69.28;100946.41;10396251;28;20068;-79
2023/07/12 14:58:52;;;;;;;1.63;0.40;;;;;;;27.25;67.24;100939.09;10410921;28;20642;-71
2023/07/12 15:03:53;;;;;;;2.35;0.50;;;;;;;26.45;68.04;100943.00;10375740;28;20037;-72
2023/07/12 15:08:54;;;;;;;4.53;0.68;;;;;;;26.41;71.32;100930.78;10398004;28;20041;-75
2023/07/12 15:13:54;;;;;;;1.08;0.50;;;;;;;27.26;69.04;100949.19;10415777;28;20056;-75
2023/07/12 15:18:55;;;;;;;2.22;0.50;;;;;;;27.87;68.36;100944.97;10414548;28;20037;-77
2023/07/12 15:23:58;;;;;;;1.95;0.50;;;;;;;28.00;69.02;100965.44;10432321;28;20060;-80
2023/07/12 15:28:59;;;;;;;3.28;0.45;;;;;;;28.04;67.38;100957.03;10415578;28;20525;-77
2023/07/12 15:33:59;;;;;;;3.42;0.50;;;;;;;28.06;65.01;100895.22;10398240;28;20033;-72
2023/07/12 15:39:00;;;;;;;1.80;0.65;;;;;;;28.46;65.10;100945.75;10380179;28;20044;-73
2023/07/12 15:44:00;;;;;;;1.70;0.50;;;;;;;28.43;65.35;100949.34;10397290;28;20056;-77
2023/07/12 15:49:01;;;;;;;0.60;0.50;;;;;;;28.03;65.34;100963.88;10431342;28;20048;-79
2023/07/12 15:54:02;;;;;;;1.73;0.68;;;;;;;27.75;65.87;100959.22;10431516;28;20052;-74
2023/07/12 15:59:04;;;;;;;1.60;0.50;;;;;;;27.49;67.09;100969.16;10413979;28;20040;-75
2023/07/12 16:04:04;;;;;;;1.13;0.50;;;;;;;27.82;67.03;100953.69;10430141;28;20067;-74
2023/07/12 16:09:05;;;;;;;1.77;0.50;;;;;;;27.58;68.05;100969.75;10409986;28;20950;-75
2023/07/12 16:14:11;;;;;;;0.85;0.40;;;;;;;28.13;67.17;100966.13;10430571;28;20582;-74
2023/07/12 16:19:14;;;;;;;3.03;0.73;;;;;;;28.81;66.71;100969.50;10428929;28;20087;-74
2023/07/12 16:24:15;;;;;;;2.65;0.70;;;;;;;29.08;66.07;100976.03;10412983;28;20505;-78
2023/07/12 16:29:16;;;;;;;0.93;0.47;;;;;;;27.55;65.27;100970.50;10396867;28;20045;-78
2023/07/12 16:34:18;;;;;;;2.22;0.55;;;;;;;27.82;67.18;100978.34;10431134;28;20033;-76
2023/07/12 16:39:18;;;;;;;1.42;0.50;;;;;;;27.47;66.48;100976.34;10412716;28;20033;-73
2023/07/12 16:44:24;;;;;;;1.65;0.75;;;;;;;24.61;71.78;101005.97;10410451;28;20033;-75
2023/07/12 16:49:25;;;;;;;2.70;0.50;;;;;;;24.85;73.61;101002.41;10413428;28;20063;-74
2023/07/12 16:54:29;;;;;;;4.40;0.70;;;;;;;25.40;72.20;100986.97;10430637;28;20041;-74
2023/07/12 16:59:30;;;;;;;1.38;0.40;;;;;;;24.83;71.65;100976.59;10423834;28;20055;-74
2023/07/12 17:04:32;;;;;;;1.77;0.70;;;;;;;24.30;73.43;100999.59;10415206;28;20506;-74
2023/07/12 17:09:33;;;;;;;2.15;0.57;;;;;;;23.63;72.70;101000.59;10434629;28;20044;-75
2023/07/12 17:14:33;;;;;;;1.20;0.70;;;;;;;23.16;74.19;100996.66;10452908;28;20063;-73
2023/07/12 17:19:34;;;;;;;2.38;0.40;;;;;;;22.76;74.57;100993.31;10434697;28;20044;-76
2023/07/12 17:24:35;;;;;;;1.02;0.50;;;;;;;22.52;75.29;101000.28;10434515;28;20434;-74
2023/07/12 17:29:35;;;;;;;1.10;0.40;;;;;;;22.47;77.62;101010.84;10384977;28;20060;-80
2023/07/12 17:34:36;;;;;;;1.95;0.77;;;;;;;22.28;79.34;101020.47;10448489;28;20063;-76
2023/07/12 17:39:36;;;;;;;1.20;0.75;;;;;;;22.03;79.44;101015.63;10430438;28;20049;-70
2023/07/12 17:44:37;;;;;;;2.05;0.90;;;;;;;21.79;81.21;101033.75;10431026;28;20041;-73
2023/07/12 17:49:38;;;;;;;2.78;0.63;;;;;;;21.42;84.46;101049.09;10449455;28;20041;-70
2023/07/12 17:54:39;;;;;;;3.15;0.88;;;;;;;21.08;86.89;101022.56;10417428;28;20037;-69
2023/07/12 17:59:41;;;;;;;1.92;0.70;;;;;;;21.14;88.18;101041.69;10421395;28;20041;-72
2023/07/12 18:04:41;;;;;;;2.30;0.60;;;;;;;20.97;86.94;101036.03;10406706;28;20041;-72
2023/07/12 18:09:42;;;;;;;2.58;1.20;;;;;;;20.94;87.74;101037.50;10407316;28;20029;-70
2023/07/12 18:14:42;;;;;;;3.03;0.88;;;;;;;20.75;88.38;101043.31;10440079;28;20079;-69
2023/07/12 18:19:43;;;;;;;2.78;0.68;;;;;;;20.62;88.99;101044.19;10413661;28;20024;-71
2023/07/12 18:24:44;;;;;;;3.08;0.70;;;;;;;20.37;89.69;101026.06;10422994;28;20044;-72
2023/07/12 18:29:45;;;;;;;2.33;0.77;;;;;;;20.34;90.56;101055.47;10438397;28;20041;-69
2023/07/12 18:34:51;;;;;;;4.68;0.98;;;;;;;20.29;91.67;101055.59;10421946;28;20041;-69
2023/07/12 18:39:52;;;;;;;1.88;0.60;;;;;;;20.15;92.55;101060.38;10438105;28;20029;-69
2023/07/12 18:44:53;;;;;;;3.40;0.77;;;;;;;20.04;93.57;101067.38;10396417;28;20114;-69
2023/07/12 18:49:55;;;;;;;3.38;1.00;;;;;;;19.88;94.58;101066.88;10404732;28;20055;-71
2023/07/12 18:54:56;;;;;;;5.35;1.23;;;;;;;19.80;96.38;101071.22;10421877;28;20424;-70
2023/07/12 18:59:56;;;;;;;10.82;2.60;;;;;;;19.65;95.96;101071.50;10455112;28;20258;-70
2023/07/12 19:04:57;;;;;;;3.38;0.90;;;;;;;19.51;95.83;101080.72;10388907;28;20068;-70
2023/07/12 19:09:57;;;;;;;3.67;0.90;;;;;;;19.40;97.60;101086.81;10436732;28;20048;-70
2023/07/12 19:15:01;;;;;;;2.83;1.00;;;;;;;19.23;100.00;101093.00;10420514;28;20036;-70
2023/07/12 19:20:01;;;;;;;4.60;0.95;;;;;;;19.08;100.00;101094.94;10420262;28;20033;-70
2023/07/12 19:25:02;;;;;;;5.57;1.00;;;;;;;18.94;100.00;101094.06;10421365;28;20048;-72
2023/07/12 19:30:04;;;;;;;6.00;1.27;;;;;;;18.80;100.00;101113.53;10403858;28;20055;-70
2023/07/12 19:35:05;;;;;;;2.38;1.05;;;;;;;18.64;100.00;101117.69;10436954;28;20059;-71
2023/07/12 19:40:06;;;;;;;2.63;1.15;;;;;;;18.49;100.00;101127.13;10420349;28;20115;-72
2023/07/12 19:45:09;;;;;;;3.67;1.00;;;;;;;18.31;100.00;101131.53;10452798;28;20071;-70
2023/07/12 19:50:10;;;;;;;5.55;1.00;;;;;;;18.13;100.00;101134.03;10397433;28;20029;-70
2023/07/12 19:55:28;;;;;;;1.75;0.80;;;;;;;18.02;100.00;101146.41;10411126;28;20053;-70
2023/07/12 20:00:29;;;;;;;3.03;1.20;;;;;;;17.83;100.00;101154.72;10411480;28;20048;-71
2023/07/12 20:05:30;;;;;;;2.88;1.25;;;;;;;17.58;100.00;101146.63;10379404;28;20043;-69
2023/07/12 20:10:31;;;;;;;4.53;1.70;;;;;;;17.57;100.00;101161.66;10378564;28;20112;-69
2023/07/12 20:15:32;;;;;;;3.40;1.30;;;;;;;17.43;100.00;101167.13;10413979;28;20051;-69
2023/07/12 20:20:33;;;;;;;4.30;1.10;;;;;;;17.32;100.00;101166.34;10377801;28;20105;-69
2023/07/12 20:25:35;;;;;;;2.78;1.08;;;;;;;17.19;100.00;101164.28;10392593;28;20191;-69
2023/07/12 20:30:38;;;;;;;2.88;1.23;;;;;;;17.10;100.00;101161.28;10414498;28;20037;-69
2023/07/12 20:35:38;;;;;;;1.63;0.82;;;;;;;17.03;100.00;101164.41;10410553;28;20037;-68
2023/07/12 20:40:39;;;;;;;2.70;1.40;;;;;;;16.82;100.00;101154.56;10398743;28;20052;-68
2023/07/12 20:45:40;;;;;;;3.22;1.35;;;;;;;16.67;100.00;101161.03;10416601;28;20040;-67
2023/07/12 20:50:45;;;;;;;2.00;1.17;;;;;;;16.49;100.00;101156.97;10416839;28;20041;-68
2023/07/12 20:55:46;;;;;;;2.28;1.20;;;;;;;16.37;100.00;101168.44;10415422;28;20044;-68
2023/07/12 21:00:46;;;;;;;4.32;1.25;;;;;;;16.21;100.00;101166.88;10414783;28;20051;-68
2023/07/12 21:05:47;;;;;;;3.65;1.10;;;;;;;16.07;100.00;101163.84;10399227;28;20033;-69
2023/07/12 21:10:54;;;;;;;1.58;1.10;;;;;;;15.88;100.00;101153.38;10414848;28;20056;-69
2023/07/12 21:15:55;;;;;;;3.60;1.80;;;;;;;15.72;100.00;101146.22;10399004;28;20064;-69
2023/07/12 21:20:56;;;;;;;8.80;2.75;;;;;;;15.78;100.00;101158.97;10384875;28;20045;-69
2023/07/12 21:25:57;;;;;;;3.50;1.23;;;;;;;15.81;100.00;101158.38;10410941;28;20041;-68
2023/07/12 21:30:58;;;;;;;6.90;2.20;;;;;;;15.76;100.00;101161.19;10399964;28;20040;-69
2023/07/12 21:36:00;;;;;;;3.30;1.50;;;;;;;15.65;100.00;101159.53;10401879;28;20044;-69
2023/07/12 21:41:10;;;;;;;4.30;1.60;;;;;;;15.51;100.00;101168.44;10406984;28;20030;-69
2023/07/12 21:46:11;;;;;;;2.17;1.52;;;;;;;15.31;100.00;101152.63;10381973;28;20044;-68
2023/07/12 21:51:11;;;;;;;5.43;1.27;;;;;;;15.30;100.00;101164.03;10384857;28;20052;-69
2023/07/12 21:56:12;;;;;;;2.25;1.40;;;;;;;15.22;100.00;101159.06;10395311;28;20067;-69
2023/07/12 22:01:14;;;;;;;7.57;1.80;;;;;;;15.16;100.00;101163.75;10379899;28;20037;-69
2023/07/12 22:06:15;;;;;;;9.05;3.75;;;;;;;15.05;100.00;101168.47;10395196;28;20037;-69
2023/07/12 22:11:18;;;;;;;6.82;2.63;;;;;;;14.90;100.00;101160.16;10385885;28;20029;-69
2023/07/12 22:16:21;;;;;;;6.07;3.58;;;;;;;14.89;100.00;101169.59;10406908;28;20049;-69
2023/07/12 22:21:21;;;;;;;3.50;1.92;;;;;;;14.84;100.00;101172.34;10410207;28;20053;-68
2023/07/12 22:26:24;;;;;;;5.15;1.90;;;;;;;14.78;100.00;101171.53;10389448;28;20145;-69
2023/07/12 22:31:25;;;;;;;7.40;2.60;;;;;;;14.70;100.00;101175.66;10368499;28;20041;-68
2023/07/12 22:36:26;;;;;;;5.88;1.80;;;;;;;14.77;100.00;101185.66;10381906;28;20036;-68
2023/07/12 22:41:26;;;;;;;5.22;2.75;;;;;;;14.77;100.00;101189.25;10419713;28;20044;-69
2023/07/12 22:46:27;;;;;;;6.82;2.65;;;;;;;14.78;100.00;101190.91;10420564;28;20041;-70
2023/07/12 22:51:28;;;;;;;3.88;1.60;;;;;;;14.77;100.00;101189.25;10402124;28;20041;-69
2023/07/12 22:56:28;;;;;;;6.32;1.80;;;;;;;14.78;100.00;101188.16;10403941;28;20537;-69